createdAt,value
2018-01-14T10:45:54.855Z,1.90
2018-01-14T10:48:28.501Z,1.90
2018-01-14T10:51:02.976Z,2.30
2018-01-14T10:53:36.630Z,2.30
2018-01-14T10:56:10.359Z,2.10
2018-01-14T10:58:45.094Z,1.70
2018-01-14T11:01:24.628Z,1.70
2018-01-14T11:03:58.186Z,1.80
2018-01-14T11:06:31.931Z,1.50
2018-01-14T11:09:05.707Z,1.80
2018-01-14T11:11:39.533Z,1.70
2018-01-14T11:14:14.005Z,1.50
2018-01-14T11:16:48.585Z,1.80
2018-01-14T11:19:22.273Z,1.70
2018-01-14T11:21:55.873Z,1.90
2018-01-14T11:24:30.245Z,1.90
2018-01-14T11:27:03.829Z,1.80
2018-01-14T11:29:38.557Z,1.60
2018-01-14T11:32:12.175Z,1.90
2018-01-14T11:34:45.957Z,2.30
2018-01-14T11:37:20.429Z,2.30
2018-01-14T11:39:54.146Z,2.30
2018-01-14T11:42:27.698Z,2.10
2018-01-14T11:45:02.099Z,2.10
2018-01-14T11:47:35.851Z,2.10
2018-01-14T11:50:09.672Z,1.80
2018-01-14T11:52:43.464Z,1.90
2018-01-14T11:55:17.155Z,2.10
2018-01-14T11:57:50.760Z,2.20
2018-01-14T12:00:24.262Z,2.30
2018-01-14T12:02:57.963Z,1.80
2018-01-14T12:05:31.548Z,1.60
2018-01-14T12:08:05.151Z,1.80
2018-01-14T12:10:39.069Z,2.10
2018-01-14T12:13:12.749Z,2.20
2018-01-14T12:15:46.407Z,2.10
2018-01-14T12:18:20.143Z,2.10
2018-01-14T12:20:53.772Z,2.30
2018-01-14T12:23:27.367Z,2.00
2018-01-14T12:26:01.885Z,2.00
2018-01-14T12:28:35.571Z,1.90
2018-01-14T12:31:09.892Z,2.50
2018-01-14T12:47:11.491Z,2.80
2018-01-14T12:49:45.187Z,2.90
2018-01-14T12:52:18.971Z,3.00
2018-01-14T12:54:53.576Z,3.20
2018-01-14T12:57:27.305Z,3.20
2018-01-14T13:00:01.131Z,3.20
2018-01-14T13:02:34.988Z,3.30
2018-01-14T13:05:08.745Z,3.30
2018-01-14T13:07:42.625Z,3.30
2018-01-14T13:10:16.529Z,3.30
2018-01-14T13:12:50.203Z,3.30
2018-01-14T13:15:23.804Z,3.40
2018-01-14T13:17:57.366Z,3.40
2018-01-14T13:20:30.976Z,3.40
2018-01-14T13:23:04.563Z,3.40
2018-01-14T13:25:38.918Z,3.40
2018-01-14T13:28:12.640Z,3.30
2018-01-14T13:30:46.215Z,3.40
2018-01-14T13:33:19.764Z,3.40
2018-01-14T13:35:53.382Z,3.40
2018-01-14T13:38:27.782Z,3.50
2018-01-14T13:41:01.439Z,3.40
2018-01-14T13:43:35.157Z,3.50
2018-01-14T13:46:09.438Z,3.30
2018-01-14T13:48:42.976Z,3.30
2018-01-14T13:51:16.558Z,3.30
2018-01-14T13:53:50.088Z,3.40
2018-01-14T13:56:23.609Z,3.40
2018-01-14T13:58:57.258Z,3.40
2018-01-14T14:01:30.744Z,3.30
2018-01-14T14:04:05.366Z,3.30
2018-01-14T14:06:38.861Z,3.30
2018-01-14T14:09:12.394Z,3.40
2018-01-14T14:11:45.911Z,3.40
2018-01-14T14:14:19.498Z,3.50
2018-01-14T14:16:53.957Z,3.50
2018-01-14T14:19:27.760Z,3.50
2018-01-14T14:22:01.247Z,3.50
2018-01-14T14:24:34.773Z,3.50
2018-01-14T14:27:08.355Z,3.40
2018-01-14T14:29:41.995Z,3.40
2018-01-14T14:32:16.285Z,3.30
2018-01-14T14:34:49.967Z,3.30
2018-01-14T14:37:23.692Z,3.30
2018-01-14T14:39:57.333Z,3.40
2018-01-14T14:42:30.910Z,3.20
2018-01-14T14:45:05.230Z,3.10
2018-01-14T14:47:38.974Z,3.10
2018-01-14T14:50:12.584Z,3.20
2018-01-14T14:52:46.127Z,3.10
2018-01-14T14:55:19.692Z,3.10
2018-01-14T14:57:54.070Z,3.20
2018-01-14T15:00:27.639Z,3.20
2018-01-14T15:03:01.222Z,3.30
2018-01-14T15:05:34.798Z,3.30
2018-01-14T15:08:08.306Z,3.20
2018-01-14T15:10:41.876Z,3.20
2018-01-14T15:13:15.475Z,3.20
2018-01-14T15:15:49.166Z,3.30
2018-01-14T15:18:22.719Z,3.30
2018-01-14T15:20:56.330Z,3.30
2018-01-14T15:23:29.969Z,3.30
2018-01-14T15:26:03.644Z,3.30
2018-01-14T15:28:37.217Z,3.30
2018-01-14T15:31:11.084Z,3.20
2018-01-14T15:33:45.467Z,3.20
2018-01-14T15:36:19.996Z,3.20
2018-01-14T15:38:53.603Z,3.20
2018-01-14T15:41:27.283Z,3.20
2018-01-14T15:44:00.870Z,3.10
2018-01-14T15:46:34.393Z,3.00
2018-01-14T15:49:07.949Z,3.00
2018-01-14T15:51:41.585Z,2.90
2018-01-14T15:54:16.033Z,2.90
2018-01-14T15:56:50.573Z,2.80
2018-01-14T15:59:24.150Z,2.80
2018-01-14T16:01:57.706Z,2.80
2018-01-14T16:04:31.226Z,2.80
2018-01-14T16:07:04.826Z,2.70
2018-01-14T16:09:38.339Z,2.80
2018-01-14T16:12:12.054Z,2.90
2018-01-14T16:14:45.743Z,2.90
2018-01-14T16:17:20.043Z,2.80
2018-01-14T16:19:53.767Z,2.80
2018-01-14T16:22:27.381Z,2.80
2018-01-14T16:25:01.821Z,2.80
2018-01-14T16:27:35.506Z,2.80
2018-01-14T16:30:09.072Z,2.80
2018-01-14T16:32:42.829Z,2.80
2018-01-14T16:35:16.552Z,2.80
2018-01-14T16:37:50.103Z,2.80
2018-01-14T16:40:23.699Z,2.80
2018-01-14T16:42:57.600Z,2.70
2018-01-14T16:45:31.146Z,2.70
2018-01-14T16:48:04.788Z,2.70
2018-01-14T16:50:39.130Z,2.80
2018-01-14T16:53:13.437Z,2.80
2018-01-14T16:55:47.889Z,2.80
2018-01-14T16:58:21.673Z,2.70
2018-01-14T17:00:55.248Z,2.80
2018-01-14T17:03:28.785Z,2.80
2018-01-14T17:06:02.363Z,2.80
2018-01-14T17:08:35.929Z,2.70
2018-01-14T17:11:09.830Z,2.70
2018-01-14T17:13:43.398Z,2.80
2018-01-14T17:16:16.951Z,2.80
2018-01-14T17:18:51.279Z,2.80
2018-01-14T17:21:25.840Z,2.80
2018-01-14T17:23:59.544Z,2.80
2018-01-14T17:26:33.943Z,2.80
2018-01-14T17:29:07.537Z,2.80
2018-01-14T17:31:41.127Z,2.70
2018-01-14T17:34:14.642Z,2.80
2018-01-14T17:36:49.056Z,2.70
2018-01-14T17:39:22.624Z,2.70
2018-01-14T17:41:56.405Z,2.70
2018-01-14T17:44:30.028Z,2.70
2018-01-14T17:47:03.662Z,2.70
2018-01-14T17:49:37.172Z,2.70
2018-01-14T17:52:10.681Z,2.70
2018-01-14T17:54:44.291Z,2.70
2018-01-14T17:57:18.109Z,2.70
2018-01-14T17:59:52.415Z,2.70
2018-01-14T18:02:26.920Z,2.60
2018-01-14T18:05:00.721Z,2.60
2018-01-14T18:07:35.063Z,2.60
2018-01-14T18:10:08.896Z,2.60
2018-01-14T18:12:42.564Z,2.60
2018-01-14T18:15:16.396Z,2.70
2018-01-14T18:17:50.746Z,2.70
2018-01-14T18:20:24.615Z,2.70
2018-01-14T18:22:58.081Z,2.70
2018-01-14T18:25:32.017Z,2.60
2018-01-14T18:28:05.647Z,2.50
2018-01-14T18:30:39.701Z,2.60
2018-01-14T18:33:14.332Z,2.60
2018-01-14T18:35:48.100Z,2.50
2018-01-14T18:38:21.968Z,2.60
2018-01-14T18:40:55.943Z,2.60
2018-01-14T18:43:29.539Z,2.60
2018-01-14T18:46:09.773Z,2.50
2018-01-14T18:48:43.445Z,2.40
2018-01-14T18:51:17.031Z,2.30
2018-01-14T18:53:50.650Z,2.30
2018-01-14T18:56:24.329Z,2.20
2018-01-14T18:58:57.884Z,2.10
2018-01-14T19:01:32.226Z,2.10
2018-01-14T19:04:06.893Z,2.20
2018-01-14T19:06:40.521Z,2.20
2018-01-14T19:09:14.043Z,2.20
2018-01-14T19:11:48.347Z,2.40
2018-01-14T19:14:22.093Z,2.30
2018-01-14T19:16:55.693Z,2.50
2018-01-14T19:19:30.077Z,2.50
2018-01-14T19:22:03.620Z,2.50
2018-01-14T19:24:37.176Z,2.50
2018-01-14T19:27:10.891Z,2.50
2018-01-14T19:29:44.446Z,2.50
2018-01-14T19:32:18.840Z,2.50
2018-01-14T19:34:53.245Z,2.50
2018-01-14T19:37:26.807Z,2.50
2018-01-14T19:40:00.383Z,2.40
2018-01-14T19:42:34.826Z,2.40
2018-01-14T19:45:09.309Z,2.40
2018-01-14T19:47:43.142Z,2.40
2018-01-14T19:50:16.799Z,2.30
2018-01-14T19:52:50.397Z,2.30
2018-01-14T19:55:23.990Z,2.20
2018-01-14T19:57:57.604Z,2.30
2018-01-14T20:00:31.327Z,2.30
2018-01-14T20:03:04.903Z,2.20
2018-01-14T20:05:38.484Z,2.30
2018-01-14T20:08:12.196Z,2.30
2018-01-14T20:10:45.787Z,2.30
2018-01-14T20:13:19.306Z,2.30
2018-01-14T20:15:52.910Z,2.30
2018-01-14T20:18:27.330Z,2.20
2018-01-14T20:21:00.993Z,2.20
2018-01-14T20:23:34.684Z,2.10
2018-01-14T20:26:08.358Z,2.00
2018-01-14T20:28:41.957Z,2.00
2018-01-14T20:31:15.553Z,1.90
2018-01-14T20:33:49.060Z,1.90
2018-01-14T20:36:23.396Z,2.00
2018-01-14T20:38:57.854Z,2.00
2018-01-14T20:41:31.474Z,2.00
2018-01-14T20:44:05.007Z,2.00
2018-01-14T20:46:39.341Z,1.90
2018-01-14T20:49:12.914Z,1.90
2018-01-14T20:51:46.586Z,1.90
2018-01-14T20:54:20.174Z,1.90
2018-01-14T20:56:53.801Z,1.90
2018-01-14T20:59:27.350Z,1.90
2018-01-14T21:02:00.892Z,1.90
2018-01-14T21:04:34.493Z,1.90
2018-01-14T21:07:08.102Z,1.80
2018-01-14T21:09:41.679Z,1.80
2018-01-14T21:12:15.402Z,1.80
2018-01-14T21:14:48.989Z,1.90
2018-01-14T21:17:22.579Z,1.80
2018-01-14T21:19:56.901Z,1.50
2018-01-14T21:22:30.465Z,1.50
2018-01-14T21:25:04.153Z,1.40
2018-01-14T21:27:37.725Z,1.40
2018-01-14T21:30:11.494Z,1.60
2018-01-14T21:32:45.238Z,1.60
2018-01-14T21:35:19.583Z,1.80
2018-01-14T21:37:53.306Z,1.80
2018-01-14T21:40:26.882Z,1.80
2018-01-14T21:43:00.522Z,1.80
2018-01-14T21:45:34.135Z,1.80
2018-01-14T21:48:08.553Z,1.70
2018-01-14T21:50:42.181Z,1.70
2018-01-14T21:53:15.837Z,1.70
2018-01-14T21:55:49.422Z,1.70
2018-01-14T21:58:23.784Z,1.70
2018-01-14T22:00:57.546Z,1.70
2018-01-14T22:03:31.178Z,1.80
2018-01-14T22:06:04.747Z,2.00
2018-01-14T22:08:43.021Z,2.10
2018-01-14T22:11:17.783Z,2.10
2018-01-14T22:13:51.547Z,2.20
2018-01-14T22:16:27.734Z,2.20
2018-01-14T22:19:08.023Z,2.20
2018-01-14T22:21:51.256Z,2.20
2018-01-14T22:24:35.255Z,2.30
2018-01-14T22:27:13.723Z,2.30
2018-01-14T22:29:51.265Z,2.30
2018-01-14T22:32:25.253Z,2.30
2018-01-14T22:34:59.767Z,2.20
2018-01-14T22:37:35.010Z,2.20
2018-01-14T22:40:09.597Z,2.30
2018-01-14T22:42:43.323Z,2.20
2018-01-14T22:45:20.105Z,2.20
2018-01-14T22:47:54.482Z,2.20
2018-01-14T22:50:30.294Z,2.30
2018-01-14T22:53:04.892Z,2.20
2018-01-14T22:55:38.730Z,2.20
2018-01-14T22:58:12.778Z,2.10
2018-01-14T23:00:47.672Z,2.00
2018-01-14T23:03:21.582Z,1.90
2018-01-14T23:05:55.532Z,2.00
2018-01-14T23:08:29.535Z,2.10
2018-01-14T23:11:08.005Z,2.20
2018-01-14T23:13:41.700Z,2.20
2018-01-14T23:16:15.767Z,2.20
2018-01-14T23:18:50.159Z,2.10
2018-01-14T23:21:25.675Z,2.10
2018-01-14T23:24:01.535Z,2.10
2018-01-14T23:26:35.306Z,2.10
2018-01-14T23:29:09.928Z,2.00
2018-01-14T23:31:45.210Z,2.00
2018-01-14T23:34:19.930Z,2.10
2018-01-14T23:36:53.850Z,2.10
2018-01-14T23:39:27.879Z,2.10
2018-01-14T23:42:01.905Z,2.10
2018-01-14T23:44:38.876Z,2.10
2018-01-14T23:47:14.109Z,2.10
2018-01-14T23:49:49.097Z,2.20
2018-01-14T23:52:23.385Z,2.10
2018-01-14T23:54:57.283Z,2.20
2018-01-14T23:57:32.878Z,2.20
